createdAt,value
2017-11-05T00:00:29.305Z,1012.25
2017-11-05T00:01:31.180Z,1012.33
2017-11-05T00:02:33.058Z,1012.32
2017-11-05T00:03:34.937Z,1012.33
2017-11-05T00:04:49.086Z,1012.33
2017-11-05T00:05:50.962Z,1012.29
2017-11-05T00:06:52.852Z,1012.29
2017-11-05T00:07:54.731Z,1012.28
2017-11-05T00:08:56.547Z,1012.31
2017-11-05T00:09:58.362Z,1012.30
2017-11-05T00:11:00.256Z,1012.31
2017-11-05T00:12:02.129Z,1012.28
2017-11-05T00:13:04.017Z,1012.36
2017-11-05T00:14:18.167Z,1012.32
2017-11-05T00:15:20.044Z,1012.32
2017-11-05T00:16:21.922Z,1012.34
2017-11-05T00:17:23.798Z,1012.33
2017-11-05T00:18:25.616Z,1012.36
2017-11-05T00:19:27.429Z,1012.38
2017-11-05T00:20:29.307Z,1012.36
2017-11-05T00:21:31.189Z,1012.34
2017-11-05T00:22:33.067Z,1012.32
2017-11-05T00:23:47.220Z,1012.32
2017-11-05T00:24:49.099Z,1012.33
2017-11-05T00:25:50.980Z,1012.30
2017-11-05T00:26:52.860Z,1012.35
2017-11-05T00:27:54.675Z,1012.32
2017-11-05T00:28:56.485Z,1012.26
2017-11-05T00:29:58.370Z,1012.27
2017-11-05T00:31:00.243Z,1012.23
2017-11-05T00:32:02.120Z,1012.23
2017-11-05T00:33:16.269Z,1012.13
2017-11-05T00:34:18.158Z,1012.15
2017-11-05T00:35:20.044Z,1012.17
2017-11-05T00:36:21.922Z,1012.23
2017-11-05T00:37:23.736Z,1012.16
2017-11-05T00:38:25.549Z,1012.13
2017-11-05T00:39:27.430Z,1012.16
2017-11-05T00:40:29.317Z,1012.13
2017-11-05T00:41:31.206Z,1012.15
2017-11-05T00:42:45.357Z,1012.15
2017-11-05T00:43:47.234Z,1012.13
2017-11-05T00:44:49.117Z,1012.11
2017-11-05T00:45:50.986Z,1012.11
2017-11-05T00:46:52.809Z,1012.13
2017-11-05T00:47:54.615Z,1012.07
2017-11-05T00:48:56.492Z,1012.07
2017-11-05T00:49:58.383Z,1012.05
2017-11-05T00:51:00.261Z,1012.07
2017-11-05T00:52:14.409Z,1012.07
2017-11-05T00:53:16.296Z,1012.06
2017-11-05T00:54:18.184Z,1012.07
2017-11-05T00:55:20.061Z,1012.13
2017-11-05T00:56:21.875Z,1012.05
2017-11-05T00:57:23.691Z,1012.06
2017-11-05T00:58:25.572Z,1012.07
2017-11-05T00:59:27.455Z,1012.10
2017-11-05T01:00:29.336Z,1012.05
2017-11-05T01:01:43.483Z,1011.99
2017-11-05T01:02:45.373Z,1012.03
2017-11-05T01:03:47.251Z,1012.02
2017-11-05T01:04:49.129Z,1012.01
2017-11-05T01:05:50.945Z,1011.95
2017-11-05T01:06:52.767Z,1011.89
2017-11-05T01:07:54.648Z,1011.96
2017-11-05T01:08:56.527Z,1011.95
2017-11-05T01:09:58.408Z,1011.98
2017-11-05T01:11:12.607Z,1011.92
2017-11-05T01:12:14.483Z,1011.97
2017-11-05T01:13:16.370Z,1011.96
2017-11-05T01:14:18.248Z,1012.00
2017-11-05T01:15:20.076Z,1011.94
2017-11-05T01:16:21.879Z,1011.93
2017-11-05T01:17:23.768Z,1012.04
2017-11-05T01:18:25.646Z,1012.01
2017-11-05T01:19:27.527Z,1012.00
2017-11-05T01:20:41.675Z,1012.00
2017-11-05T01:21:43.562Z,1012.00
2017-11-05T01:22:45.440Z,1012.03
2017-11-05T01:23:47.315Z,1011.94
2017-11-05T01:24:49.131Z,1011.95
2017-11-05T01:25:50.944Z,1011.94
2017-11-05T01:26:52.820Z,1011.81
2017-11-05T01:27:54.699Z,1011.87
2017-11-05T01:28:56.573Z,1011.83
2017-11-05T01:30:10.725Z,1011.84
2017-11-05T01:31:12.599Z,1011.80
2017-11-05T01:32:14.477Z,1011.80
2017-11-05T01:33:16.352Z,1011.89
2017-11-05T01:34:18.169Z,1011.86
2017-11-05T01:35:19.982Z,1011.78
2017-11-05T01:36:21.861Z,1011.71
2017-11-05T01:37:23.749Z,1011.72
2017-11-05T01:38:25.627Z,1011.70
2017-11-05T01:39:39.788Z,1011.69
2017-11-05T01:40:41.664Z,1011.62
2017-11-05T01:41:43.545Z,1011.58
2017-11-05T01:42:45.428Z,1011.72
2017-11-05T01:43:47.239Z,1011.65
2017-11-05T01:44:49.052Z,1011.62
2017-11-05T01:45:50.927Z,1011.61
2017-11-05T01:46:52.807Z,1011.63
2017-11-05T01:47:54.685Z,1011.65
2017-11-05T01:49:08.841Z,1011.51
2017-11-05T01:50:10.717Z,1011.57
2017-11-05T01:51:12.610Z,1011.57
2017-11-05T01:52:14.484Z,1011.52
2017-11-05T01:53:16.299Z,1011.54
2017-11-05T01:54:18.122Z,1011.49
2017-11-05T01:55:20.012Z,1011.55
2017-11-05T01:56:21.894Z,1011.47
2017-11-05T01:57:23.769Z,1011.47
2017-11-05T01:58:37.966Z,1011.51
2017-11-05T01:59:39.841Z,1011.43
2017-11-05T02:00:41.731Z,1011.45
2017-11-05T02:01:43.606Z,1011.47
2017-11-05T02:02:45.421Z,1011.46
2017-11-05T02:03:47.236Z,1011.41
2017-11-05T02:04:49.115Z,1011.47
2017-11-05T02:05:50.993Z,1011.48
2017-11-05T02:06:52.834Z,1011.48
2017-11-05T02:08:07.030Z,1011.45
2017-11-05T02:09:08.906Z,1011.49
2017-11-05T02:10:10.784Z,1011.41
2017-11-05T02:11:12.676Z,1011.50
2017-11-05T02:12:14.488Z,1011.45
2017-11-05T02:13:16.301Z,1011.46
2017-11-05T02:14:18.182Z,1011.47
2017-11-05T02:15:20.057Z,1011.49
2017-11-05T02:16:21.936Z,1011.53
2017-11-05T02:17:36.084Z,1011.52
2017-11-05T02:18:37.962Z,1011.57
2017-11-05T02:19:39.839Z,1011.54
2017-11-05T02:20:41.714Z,1011.59
2017-11-05T02:21:43.530Z,1011.57
2017-11-05T02:22:45.343Z,1011.53
2017-11-05T02:23:47.219Z,1011.56
2017-11-05T02:24:49.109Z,1011.56
2017-11-05T02:25:50.985Z,1011.63
2017-11-05T02:27:05.134Z,1011.63
2017-11-05T02:28:07.028Z,1011.64
2017-11-05T02:29:08.902Z,1011.71
2017-11-05T02:30:10.778Z,1011.72
2017-11-05T02:31:12.593Z,1011.75
2017-11-05T02:32:14.409Z,1011.72
2017-11-05T02:33:16.292Z,1011.76
2017-11-05T02:34:18.180Z,1011.74
2017-11-05T02:35:20.067Z,1011.77
2017-11-05T02:36:34.215Z,1011.79
2017-11-05T02:37:36.088Z,1011.70
2017-11-05T02:38:37.966Z,1011.72
2017-11-05T02:39:39.842Z,1011.68
2017-11-05T02:40:41.659Z,1011.70
2017-11-05T02:41:43.487Z,1011.72
2017-11-05T02:42:45.359Z,1011.74
2017-11-05T02:43:47.243Z,1011.71
2017-11-05T02:44:49.123Z,1011.73
2017-11-05T02:46:03.288Z,1011.78
2017-11-05T02:47:05.165Z,1011.79
2017-11-05T02:48:07.047Z,1011.84
2017-11-05T02:49:08.927Z,1011.87
2017-11-05T02:50:10.743Z,1011.80
2017-11-05T02:51:12.559Z,1011.82
2017-11-05T02:52:14.450Z,1011.82
2017-11-05T02:53:16.331Z,1011.82
2017-11-05T02:54:18.217Z,1011.79
2017-11-05T02:55:32.571Z,1011.80
2017-11-05T02:56:34.451Z,1011.75
2017-11-05T02:57:36.343Z,1011.74
2017-11-05T02:58:38.225Z,1011.75
2017-11-05T02:59:40.040Z,1011.75
2017-11-05T03:00:41.856Z,1011.78
2017-11-05T03:01:43.735Z,1011.83
2017-11-05T03:02:45.616Z,1011.74
2017-11-05T03:03:47.512Z,1011.69
2017-11-05T03:05:01.717Z,1011.59
2017-11-05T03:06:03.593Z,1011.64
2017-11-05T03:07:05.481Z,1011.64
2017-11-05T03:08:07.362Z,1011.59
2017-11-05T03:09:09.177Z,1011.65
2017-11-05T03:10:10.994Z,1011.63
2017-11-05T03:11:12.874Z,1011.56
2017-11-05T03:12:14.756Z,1011.59
2017-11-05T03:13:16.638Z,1011.58
2017-11-05T03:14:30.793Z,1011.57
2017-11-05T03:15:32.672Z,1011.52
2017-11-05T03:16:34.562Z,1011.55
2017-11-05T03:17:36.443Z,1011.50
2017-11-05T03:18:38.259Z,1011.44
2017-11-05T03:19:40.073Z,1011.53
2017-11-05T03:20:41.964Z,1011.44
2017-11-05T03:21:43.848Z,1011.39
2017-11-05T03:22:45.731Z,1011.45
2017-11-05T03:23:59.888Z,1011.29
2017-11-05T03:25:01.768Z,1011.30
2017-11-05T03:26:03.651Z,1011.34
2017-11-05T03:27:05.530Z,1011.28
2017-11-05T03:28:07.346Z,1011.27
2017-11-05T03:29:09.166Z,1011.28
2017-11-05T03:30:11.052Z,1011.31
2017-11-05T03:31:12.931Z,1011.27
2017-11-05T03:32:14.813Z,1011.32
2017-11-05T03:33:29.019Z,1011.31
2017-11-05T03:34:30.900Z,1011.28
2017-11-05T03:35:32.775Z,1011.23
2017-11-05T03:36:34.653Z,1011.28
2017-11-05T03:37:36.470Z,1011.21
2017-11-05T03:38:38.288Z,1011.24
2017-11-05T03:39:40.170Z,1011.23
2017-11-05T03:40:42.051Z,1011.20
2017-11-05T03:41:43.936Z,1011.23
2017-11-05T03:42:58.091Z,1011.20
2017-11-05T03:43:59.970Z,1011.18
2017-11-05T03:45:01.877Z,1011.18
2017-11-05T03:46:03.738Z,1011.17
2017-11-05T03:47:05.554Z,1011.22
2017-11-05T03:48:07.370Z,1011.21
2017-11-05T03:49:09.190Z,1011.18
2017-11-05T03:50:11.006Z,1011.12
2017-11-05T03:51:12.824Z,1011.11
2017-11-05T03:52:27.025Z,1011.10
2017-11-05T03:53:28.905Z,1011.13
2017-11-05T03:54:30.795Z,1011.10
2017-11-05T03:55:32.674Z,1011.05
2017-11-05T03:56:34.489Z,1011.05
2017-11-05T03:57:36.308Z,1011.01
2017-11-05T03:58:38.189Z,1011.01
2017-11-05T03:59:40.080Z,1011.04
2017-11-05T04:00:41.955Z,1011.07
2017-11-05T04:01:56.107Z,1011.05
2017-11-05T04:02:57.985Z,1011.11
2017-11-05T04:03:59.875Z,1011.11
2017-11-05T04:05:01.761Z,1011.09
2017-11-05T04:06:03.572Z,1011.02
2017-11-05T04:07:05.404Z,1011.13
2017-11-05T04:08:07.294Z,1011.09
2017-11-05T04:09:09.173Z,1011.08
2017-11-05T04:10:11.055Z,1011.05
2017-11-05T04:11:25.209Z,1010.99
2017-11-05T04:12:27.089Z,1011.01
2017-11-05T04:13:28.969Z,1010.96
2017-11-05T04:14:30.847Z,1010.91
2017-11-05T04:15:32.663Z,1010.86
2017-11-05T04:16:34.481Z,1010.86
2017-11-05T04:17:36.362Z,1010.86
2017-11-05T04:18:38.244Z,1010.85
2017-11-05T04:19:40.128Z,1010.86
2017-11-05T04:20:54.286Z,1010.81
2017-11-05T04:21:56.177Z,1010.79
2017-11-05T04:22:58.057Z,1010.80
2017-11-05T04:23:59.937Z,1010.76
2017-11-05T04:25:01.752Z,1010.75
2017-11-05T04:26:03.567Z,1010.71
2017-11-05T04:27:05.450Z,1010.66
2017-11-05T04:28:07.333Z,1010.63
2017-11-05T04:29:09.217Z,1010.70
2017-11-05T04:30:23.371Z,1010.64
2017-11-05T04:31:25.250Z,1010.69
2017-11-05T04:32:27.131Z,1010.69
2017-11-05T04:33:29.011Z,1010.66
2017-11-05T04:34:30.832Z,1010.64
2017-11-05T04:35:32.645Z,1010.53
2017-11-05T04:36:34.526Z,1010.56
2017-11-05T04:37:36.409Z,1010.59
2017-11-05T04:38:38.295Z,1010.62
2017-11-05T04:39:52.498Z,1010.59
2017-11-05T04:40:54.376Z,1010.51
2017-11-05T04:41:56.263Z,1010.46
2017-11-05T04:42:58.143Z,1010.52
2017-11-05T04:43:59.960Z,1010.50
2017-11-05T04:45:01.775Z,1010.43
2017-11-05T04:46:03.655Z,1010.44
2017-11-05T04:47:05.549Z,1010.48
2017-11-05T04:48:07.431Z,1010.54
2017-11-05T04:49:21.584Z,1010.48
2017-11-05T04:50:23.474Z,1010.49
2017-11-05T04:51:25.362Z,1010.48
2017-11-05T04:52:27.246Z,1010.45
2017-11-05T04:53:29.065Z,1010.48
2017-11-05T04:54:30.877Z,1010.46
2017-11-05T04:55:32.768Z,1010.41
2017-11-05T04:56:34.661Z,1010.45
2017-11-05T04:57:36.549Z,1010.41
2017-11-05T04:58:50.701Z,1010.39
2017-11-05T04:59:52.581Z,1010.51
2017-11-05T05:00:54.468Z,1010.42
2017-11-05T05:01:56.347Z,1010.46
2017-11-05T05:02:58.164Z,1010.47
2017-11-05T05:03:59.983Z,1010.49
2017-11-05T05:05:01.866Z,1010.37
2017-11-05T05:06:03.748Z,1010.42
2017-11-05T05:07:05.628Z,1010.48
2017-11-05T05:08:19.781Z,1010.36
2017-11-05T05:09:21.659Z,1010.37
2017-11-05T05:10:23.541Z,1010.51
2017-11-05T05:11:25.420Z,1010.40
2017-11-05T05:12:27.246Z,1010.40
2017-11-05T05:13:29.075Z,1010.38
2017-11-05T05:14:30.955Z,1010.47
2017-11-05T05:15:32.838Z,1010.39
2017-11-05T05:16:34.723Z,1010.33
2017-11-05T05:17:48.876Z,1010.25
2017-11-05T05:18:50.752Z,1010.32
2017-11-05T05:19:52.634Z,1010.31
2017-11-05T05:20:54.513Z,1010.34
2017-11-05T05:21:56.328Z,1010.26
2017-11-05T05:22:58.143Z,1010.32
2017-11-05T05:24:00.023Z,1010.33
2017-11-05T05:25:01.906Z,1010.36
2017-11-05T05:26:03.788Z,1010.40
2017-11-05T05:27:18.041Z,1010.35
2017-11-05T05:28:19.924Z,1010.29
2017-11-05T05:29:21.801Z,1010.36
2017-11-05T05:30:23.678Z,1010.34
2017-11-05T05:31:25.492Z,1010.36
2017-11-05T05:32:27.309Z,1010.33
2017-11-05T05:33:29.192Z,1010.31
2017-11-05T05:34:31.116Z,1010.30
2017-11-05T05:35:32.967Z,1010.26
2017-11-05T05:36:47.119Z,1010.34
2017-11-05T05:37:48.998Z,1010.28
2017-11-05T05:38:50.879Z,1010.24
2017-11-05T05:39:52.771Z,1010.28
2017-11-05T05:40:54.587Z,1010.30
2017-11-05T05:41:56.404Z,1010.19
2017-11-05T05:42:58.284Z,1010.19
2017-11-05T05:44:00.167Z,1010.18
2017-11-05T05:45:02.051Z,1010.17
2017-11-05T05:46:16.205Z,1010.20
2017-11-05T05:47:18.082Z,1010.16
2017-11-05T05:48:19.964Z,1010.12
2017-11-05T05:49:21.845Z,1010.11
2017-11-05T05:50:23.664Z,1010.10
2017-11-05T05:51:25.485Z,1010.21
2017-11-05T05:52:27.364Z,1010.20
2017-11-05T05:53:29.253Z,1010.14
2017-11-05T05:54:31.134Z,1010.11
2017-11-05T05:55:45.289Z,1010.14
2017-11-05T05:56:47.180Z,1010.14
2017-11-05T05:57:49.062Z,1009.99
2017-11-05T05:58:50.944Z,1010.02
2017-11-05T05:59:52.773Z,1010.00
2017-11-05T06:00:54.594Z,1009.93
2017-11-05T06:01:56.480Z,1009.96
2017-11-05T06:02:58.362Z,1009.88
2017-11-05T06:04:00.257Z,1009.86
2017-11-05T06:05:14.424Z,1009.87
2017-11-05T06:06:16.305Z,1009.84
2017-11-05T06:07:18.188Z,1009.82
2017-11-05T06:08:20.072Z,1009.81
2017-11-05T06:09:21.890Z,1009.81
2017-11-05T06:10:23.723Z,1009.81
2017-11-05T06:11:25.607Z,1009.82
2017-11-05T06:12:27.494Z,1009.77
2017-11-05T06:13:29.382Z,1009.87
2017-11-05T06:14:43.538Z,1009.75
2017-11-05T06:15:45.417Z,1009.76
2017-11-05T06:16:47.302Z,1009.83
2017-11-05T06:17:49.183Z,1009.87
2017-11-05T06:18:51.000Z,1009.83
2017-11-05T06:19:52.831Z,1009.84
2017-11-05T06:20:54.718Z,1009.84
2017-11-05T06:21:56.605Z,1009.87
2017-11-05T06:22:58.490Z,1009.84
2017-11-05T06:24:12.660Z,1009.91
2017-11-05T06:25:14.543Z,1009.87
2017-11-05T06:26:16.430Z,1009.88
2017-11-05T06:27:18.518Z,1009.80
2017-11-05T06:28:20.356Z,1009.84
2017-11-05T06:29:22.172Z,1009.88
2017-11-05T06:30:24.058Z,1009.80
2017-11-05T06:31:25.948Z,1009.83
2017-11-05T06:32:27.836Z,1009.71
2017-11-05T06:33:41.994Z,1009.71
2017-11-05T06:34:43.875Z,1009.69
2017-11-05T06:35:45.758Z,1009.71
2017-11-05T06:36:47.643Z,1009.72
2017-11-05T06:37:49.464Z,1009.70
2017-11-05T06:38:51.286Z,1009.75
2017-11-05T06:39:53.172Z,1009.79
2017-11-05T06:40:55.068Z,1009.73
2017-11-05T06:41:56.967Z,1009.74
2017-11-05T06:43:11.117Z,1009.71
2017-11-05T06:44:13.000Z,1009.76
2017-11-05T06:45:14.884Z,1009.78
2017-11-05T06:46:16.771Z,1009.80
2017-11-05T06:47:18.590Z,1009.73
2017-11-05T06:48:20.412Z,1009.78
2017-11-05T06:49:22.299Z,1009.79
2017-11-05T06:50:24.188Z,1009.74
2017-11-05T06:51:26.077Z,1009.77
2017-11-05T06:52:40.233Z,1009.76
2017-11-05T06:53:42.117Z,1009.78
2017-11-05T06:54:44.011Z,1009.75
2017-11-05T06:55:45.900Z,1009.81
2017-11-05T06:56:47.723Z,1009.81
2017-11-05T06:57:49.544Z,1009.71
2017-11-05T06:58:51.432Z,1009.68
2017-11-05T06:59:53.323Z,1009.68
2017-11-05T07:00:55.206Z,1009.70
2017-11-05T07:02:09.365Z,1009.66
2017-11-05T07:03:11.251Z,1009.58
2017-11-05T07:04:13.135Z,1009.57
2017-11-05T07:05:15.021Z,1009.54
2017-11-05T07:06:16.842Z,1009.48
2017-11-05T07:07:18.666Z,1009.51
2017-11-05T07:08:20.554Z,1009.50
2017-11-05T07:09:22.439Z,1009.45
2017-11-05T07:10:24.330Z,1009.41
2017-11-05T07:11:38.492Z,1009.41
2017-11-05T07:12:40.376Z,1009.41
2017-11-05T07:13:42.262Z,1009.41
2017-11-05T07:14:44.148Z,1009.40
2017-11-05T07:15:45.968Z,1009.44
2017-11-05T07:16:47.793Z,1009.46
2017-11-05T07:17:49.679Z,1009.52
2017-11-05T07:18:51.574Z,1009.61
2017-11-05T07:19:53.463Z,1009.53
2017-11-05T07:21:07.607Z,1009.61
2017-11-05T07:22:09.492Z,1009.55
2017-11-05T07:23:11.379Z,1009.60
2017-11-05T07:24:13.264Z,1009.61
2017-11-05T07:25:15.085Z,1009.63
2017-11-05T07:26:16.908Z,1009.75
2017-11-05T07:27:18.793Z,1009.83
2017-11-05T07:28:20.683Z,1009.76
2017-11-05T07:29:22.572Z,1009.80
2017-11-05T07:30:36.791Z,1009.93
2017-11-05T07:31:38.677Z,1009.88
2017-11-05T07:32:40.562Z,1009.89
2017-11-05T07:33:42.454Z,1009.81
2017-11-05T07:34:44.276Z,1009.88
2017-11-05T07:35:46.101Z,1009.80
2017-11-05T07:36:47.991Z,1009.80
2017-11-05T07:37:49.882Z,1009.75
2017-11-05T07:38:51.771Z,1009.87
2017-11-05T07:40:05.983Z,1009.86
2017-11-05T07:41:07.869Z,1009.87
2017-11-05T07:42:09.756Z,1009.94
2017-11-05T07:43:11.643Z,1009.95
2017-11-05T07:44:13.466Z,1010.00
2017-11-05T07:45:15.288Z,1010.00
2017-11-05T07:46:17.176Z,1010.05
2017-11-05T07:47:19.066Z,1010.09
2017-11-05T07:48:20.954Z,1010.06
2017-11-05T07:49:35.114Z,1010.08
2017-11-05T07:50:27.054Z,1010.02
2017-11-05T07:51:29.142Z,1010.07
2017-11-05T07:52:31.032Z,1010.17
2017-11-05T07:53:32.919Z,1010.20
2017-11-05T07:54:34.752Z,1010.11
2017-11-05T07:55:36.591Z,1010.14
2017-11-05T07:56:39.229Z,1010.09
2017-11-05T07:57:41.774Z,1010.08
2017-11-05T07:58:44.182Z,1010.13
2017-11-05T07:59:59.545Z,1010.13
2017-11-05T08:01:01.967Z,1010.10
2017-11-05T08:02:04.344Z,1010.17
2017-11-05T08:03:06.695Z,1010.10
2017-11-05T08:04:09.168Z,1010.06
2017-11-05T08:05:11.964Z,1010.11
2017-11-05T08:06:14.545Z,1010.05
2017-11-05T08:07:17.228Z,1010.06
2017-11-05T08:08:20.092Z,1010.13
2017-11-05T08:09:35.066Z,1010.10
2017-11-05T08:10:38.062Z,1010.08
2017-11-05T08:11:40.474Z,1010.20
2017-11-05T08:12:43.398Z,1010.26
2017-11-05T08:13:45.928Z,1010.30
2017-11-05T08:14:48.409Z,1010.40
2017-11-05T08:15:50.742Z,1010.38
2017-11-05T08:16:53.143Z,1010.46
2017-11-05T08:17:56.087Z,1010.34
2017-11-05T08:19:11.160Z,1010.32
2017-11-05T08:20:13.593Z,1010.21
2017-11-05T08:21:16.427Z,1010.22
2017-11-05T08:22:18.993Z,1010.21
2017-11-05T08:23:22.090Z,1010.15
2017-11-05T08:24:24.759Z,1010.14
2017-11-05T08:25:27.468Z,1010.16
2017-11-05T08:26:30.300Z,1010.15
2017-11-05T08:27:33.238Z,1010.14
2017-11-05T08:28:48.207Z,1010.17
2017-11-05T08:29:50.669Z,1010.18
2017-11-05T08:30:53.360Z,1010.15
2017-11-05T08:31:56.696Z,1010.07
2017-11-05T08:32:59.085Z,1010.08
2017-11-05T08:34:01.498Z,1009.96
2017-11-05T08:35:04.052Z,1009.91
2017-11-05T08:36:06.686Z,1009.78
2017-11-05T08:39:43.676Z,1009.87
2017-11-05T08:40:46.187Z,1009.84
2017-11-05T08:41:50.092Z,1009.83
2017-11-05T08:42:52.625Z,1009.78
2017-11-05T08:43:55.328Z,1009.75
2017-11-05T08:44:57.851Z,1009.71
2017-11-05T08:46:00.919Z,1009.62
2017-11-05T08:47:03.623Z,1009.65
2017-11-05T08:48:06.808Z,1009.62
2017-11-05T08:49:21.891Z,1009.56
2017-11-05T08:50:24.582Z,1009.58
2017-11-05T08:51:27.089Z,1009.60
2017-11-05T08:52:30.231Z,1009.60
2017-11-05T08:53:32.587Z,1009.57
2017-11-05T08:54:35.577Z,1009.58
2017-11-05T08:55:38.309Z,1009.62
2017-11-05T08:56:41.057Z,1009.64
2017-11-05T08:57:44.112Z,1009.71
2017-11-05T08:58:59.547Z,1009.68
2017-11-05T09:00:02.724Z,1009.73
2017-11-05T09:01:05.771Z,1009.76
2017-11-05T09:02:08.433Z,1009.81
2017-11-05T09:03:11.280Z,1009.83
2017-11-05T09:04:13.844Z,1009.80
2017-11-05T09:05:16.255Z,1009.79
2017-11-05T09:06:18.961Z,1009.75
2017-11-05T09:07:21.752Z,1009.73
2017-11-05T09:08:37.099Z,1009.72
2017-11-05T09:09:39.668Z,1009.79
2017-11-05T09:10:42.209Z,1009.79
2017-11-05T09:11:45.303Z,1009.81
2017-11-05T09:12:47.822Z,1009.84
2017-11-05T09:13:52.797Z,1009.85
2017-11-05T09:14:55.481Z,1009.88
2017-11-05T09:15:58.555Z,1009.84
2017-11-05T09:17:01.201Z,1009.87
2017-11-05T09:18:16.299Z,1009.97
2017-11-05T09:19:19.288Z,1010.00
2017-11-05T09:20:21.777Z,1010.08
2017-11-05T09:21:23.970Z,1010.09
2017-11-05T09:22:26.308Z,1010.15
2017-11-05T09:23:29.044Z,1010.19
2017-11-05T09:24:31.189Z,1010.11
2017-11-05T09:25:33.244Z,1010.07
2017-11-05T09:26:35.172Z,1010.02
2017-11-05T09:27:49.448Z,1010.02
2017-11-05T09:28:51.420Z,1009.96
2017-11-05T09:29:53.357Z,1009.89
2017-11-05T09:30:55.293Z,1009.83
2017-11-05T09:31:57.161Z,1009.85
2017-11-05T09:32:59.031Z,1009.72
2017-11-05T09:34:00.966Z,1009.74
2017-11-05T09:35:02.911Z,1009.74
2017-11-05T09:36:04.840Z,1009.67
2017-11-05T09:37:19.080Z,1009.66
2017-11-05T09:38:21.003Z,1009.60
2017-11-05T09:39:22.945Z,1009.40
2017-11-05T09:40:25.675Z,1009.50
2017-11-05T09:41:28.235Z,1009.48
2017-11-05T09:42:30.244Z,1009.47
2017-11-05T09:43:32.144Z,1009.48
2017-11-05T09:44:34.000Z,1009.44
2017-11-05T09:45:35.878Z,1009.39
2017-11-05T09:46:50.116Z,1009.41
2017-11-05T09:47:52.049Z,1009.37
2017-11-05T09:48:54.000Z,1009.35
2017-11-05T09:49:55.938Z,1009.40
2017-11-05T09:50:57.818Z,1009.45
2017-11-05T09:51:59.686Z,1009.46
2017-11-05T09:53:01.624Z,1009.36
2017-11-05T09:54:03.569Z,1009.35
2017-11-05T09:55:05.515Z,1009.38
2017-11-05T09:56:19.764Z,1009.34
2017-11-05T09:57:21.699Z,1009.43
2017-11-05T09:58:23.645Z,1009.39
2017-11-05T09:59:25.578Z,1009.37
2017-11-05T10:00:27.457Z,1009.39
2017-11-05T10:01:29.340Z,1009.45
2017-11-05T10:02:31.284Z,1009.43
2017-11-05T10:03:33.222Z,1009.46
2017-11-05T10:04:35.168Z,1009.53
2017-11-05T10:05:49.411Z,1009.49
2017-11-05T10:06:51.348Z,1009.62
2017-11-05T10:07:53.284Z,1009.58
2017-11-05T10:08:55.225Z,1009.65
2017-11-05T10:09:57.105Z,1009.59
2017-11-05T10:10:58.988Z,1009.49
2017-11-05T10:12:00.931Z,1009.52
2017-11-05T10:13:02.877Z,1009.49
2017-11-05T10:14:04.821Z,1009.49
2017-11-05T10:15:19.068Z,1009.44
2017-11-05T10:16:21.018Z,1009.38
2017-11-05T10:17:22.959Z,1009.36
2017-11-05T10:18:24.897Z,1009.32
2017-11-05T10:19:26.730Z,1009.24
2017-11-05T10:20:28.550Z,1009.26
2017-11-05T10:21:30.443Z,1009.19
2017-11-05T10:22:32.364Z,1009.21
2017-11-05T10:23:34.257Z,1009.18
2017-11-05T10:24:48.425Z,1009.19
2017-11-05T10:25:50.318Z,1009.25
2017-11-05T10:26:52.207Z,1009.35
2017-11-05T10:27:54.103Z,1009.37
2017-11-05T10:28:55.930Z,1009.30
2017-11-05T10:29:57.757Z,1009.38
2017-11-05T10:30:59.648Z,1009.31
2017-11-05T10:32:01.540Z,1009.21
2017-11-05T10:33:03.431Z,1009.27
2017-11-05T10:34:17.594Z,1009.33
2017-11-05T10:35:19.481Z,1009.25
2017-11-05T10:36:21.369Z,1009.27
2017-11-05T10:37:23.258Z,1009.24
2017-11-05T10:38:25.441Z,1009.26
2017-11-05T10:39:27.284Z,1009.29
2017-11-05T10:40:29.530Z,1009.25
2017-11-05T10:41:31.396Z,1009.25
2017-11-05T10:42:33.314Z,1009.22
2017-11-05T10:43:47.477Z,1009.24
2017-11-05T10:44:49.369Z,1009.14
2017-11-05T10:45:51.259Z,1009.08
2017-11-05T10:46:53.148Z,1009.10
2017-11-05T10:47:54.978Z,1009.09
2017-11-05T10:48:56.807Z,1009.06
2017-11-05T10:49:58.702Z,1009.04
2017-11-05T10:51:00.593Z,1009.04
2017-11-05T10:52:02.486Z,1008.97
2017-11-05T10:53:16.656Z,1009.06
2017-11-05T10:54:18.546Z,1009.01
2017-11-05T10:55:20.434Z,1009.02
2017-11-05T10:56:22.328Z,1008.95
2017-11-05T10:57:24.153Z,1009.04
2017-11-05T10:58:25.982Z,1009.00
2017-11-05T10:59:27.875Z,1009.00
2017-11-05T11:00:29.769Z,1008.98
2017-11-05T11:01:31.666Z,1009.00
2017-11-05T11:02:45.826Z,1009.00
2017-11-05T11:03:47.714Z,1008.89
2017-11-05T11:04:49.604Z,1008.97
2017-11-05T11:05:51.497Z,1008.98
2017-11-05T11:06:53.338Z,1008.94
2017-11-05T11:07:55.155Z,1008.97
2017-11-05T11:08:57.046Z,1008.94
2017-11-05T11:09:58.943Z,1008.93
2017-11-05T11:11:00.843Z,1008.91
2017-11-05T11:12:15.002Z,1008.97
2017-11-05T11:13:16.889Z,1008.97
2017-11-05T11:14:18.776Z,1009.04
2017-11-05T11:15:20.666Z,1008.99
2017-11-05T11:16:22.492Z,1009.01
2017-11-05T11:17:24.316Z,1009.01
2017-11-05T11:18:26.208Z,1009.00
2017-11-05T11:19:28.111Z,1009.02
2017-11-05T11:20:30.003Z,1009.10
2017-11-05T11:21:44.164Z,1009.07
2017-11-05T11:22:46.053Z,1009.02
2017-11-05T11:23:47.954Z,1008.99
2017-11-05T11:24:49.843Z,1008.97
2017-11-05T11:25:51.667Z,1008.93
2017-11-05T11:26:53.492Z,1008.98
2017-11-05T11:27:55.417Z,1008.97
2017-11-05T11:28:57.309Z,1008.97
2017-11-05T11:29:59.547Z,1008.99
2017-11-05T11:31:13.772Z,1008.94
2017-11-05T11:32:15.969Z,1008.88
2017-11-05T11:33:17.855Z,1008.88
2017-11-05T11:34:19.746Z,1008.88
2017-11-05T11:35:21.922Z,1008.87
2017-11-05T11:36:24.182Z,1008.84
2017-11-05T11:37:26.409Z,1008.90
2017-11-05T11:38:28.677Z,1008.89
2017-11-05T11:39:30.533Z,1008.89
2017-11-05T11:40:44.713Z,1008.85
2017-11-05T11:41:46.603Z,1008.84
2017-11-05T11:42:48.489Z,1008.87
2017-11-05T11:43:50.381Z,1008.86
2017-11-05T11:44:52.206Z,1008.89
2017-11-05T11:45:54.032Z,1008.77
2017-11-05T11:46:55.923Z,1008.79
2017-11-05T11:47:57.818Z,1008.83
2017-11-05T11:48:59.705Z,1008.77
2017-11-05T11:50:13.878Z,1008.76
2017-11-05T11:51:15.769Z,1008.76
2017-11-05T11:52:17.658Z,1008.79
2017-11-05T11:53:19.550Z,1008.74
2017-11-05T11:54:21.377Z,1008.72
2017-11-05T11:55:23.208Z,1008.74
2017-11-05T11:56:25.105Z,1008.68
2017-11-05T11:57:27.010Z,1008.68
2017-11-05T11:58:28.901Z,1008.64
2017-11-05T11:59:43.071Z,1008.60
2017-11-05T12:00:44.963Z,1008.60
2017-11-05T12:01:46.859Z,1008.61
2017-11-05T12:02:48.750Z,1008.65
2017-11-05T12:03:50.578Z,1008.62
2017-11-05T12:04:52.410Z,1008.56
2017-11-05T12:05:54.302Z,1008.59
2017-11-05T12:06:56.198Z,1008.58
2017-11-05T12:07:58.096Z,1008.56
2017-11-05T12:09:12.266Z,1008.54
2017-11-05T12:10:14.158Z,1008.56
2017-11-05T12:11:16.051Z,1008.55
2017-11-05T12:12:17.941Z,1008.61
2017-11-05T12:13:19.766Z,1008.62
2017-11-05T12:14:21.598Z,1008.55
2017-11-05T12:15:23.489Z,1008.48
2017-11-05T12:16:25.387Z,1008.49
2017-11-05T12:17:27.273Z,1008.41
2017-11-05T12:18:41.444Z,1008.33
2017-11-05T12:19:43.337Z,1008.27
2017-11-05T12:20:45.644Z,1008.26
2017-11-05T12:21:47.522Z,1008.21
2017-11-05T12:22:49.348Z,1008.13
2017-11-05T12:23:51.175Z,1008.13
2017-11-05T12:24:53.213Z,1008.09
2017-11-05T12:25:55.449Z,1008.07
2017-11-05T12:26:57.310Z,1008.08
2017-11-05T12:28:11.471Z,1008.00
2017-11-05T12:29:13.374Z,1008.05
2017-11-05T12:30:15.268Z,1007.94
2017-11-05T12:31:17.156Z,1008.02
2017-11-05T12:32:18.980Z,1008.02
2017-11-05T12:33:20.810Z,1007.96
2017-11-05T12:34:22.698Z,1007.95
2017-11-05T12:35:24.594Z,1007.92
2017-11-05T12:36:26.488Z,1007.94
2017-11-05T12:37:40.652Z,1007.94
2017-11-05T12:38:42.562Z,1007.89
2017-11-05T12:39:44.448Z,1007.84
2017-11-05T12:40:46.679Z,1007.91
2017-11-05T12:41:48.469Z,1007.85
2017-11-05T12:42:50.305Z,1007.85
2017-11-05T12:43:52.251Z,1007.79
2017-11-05T12:44:54.142Z,1007.79
2017-11-05T12:45:56.041Z,1007.69
2017-11-05T12:47:10.206Z,1007.60
2017-11-05T12:48:12.112Z,1007.59